Time;durP1;ratioP1;P1;durP2;ratioP2;P2;SDS_P1;SDS_P2;PMS_P1;PMS_P2;Temp;Humidity;BMP_temperature;BMP_pressure;BME280_temperature;BME280_humidity;BME280_pressure;Samples;Min_cycle;Max_cycle;Signal;HPM_P1;HPM_P2
2023/06/29 00:00:23;;;;;;;28.88;18.45;;;;;;;21.34;73.22;101543.47;4972099;28;20414;-79
2023/06/29 00:02:49;;;;;;;27.13;18.52;;;;;;;21.35;73.26;101533.56;4965376;28;20372;-79
2023/06/29 00:05:15;;;;;;;24.92;18.55;;;;;;;21.36;72.82;101535.31;4965040;28;20545;-79
2023/06/29 00:07:41;;;;;;;26.55;18.85;;;;;;;21.32;73.25;101534.69;4968618;28;20049;-79
2023/06/29 00:10:08;;;;;;;26.05;17.67;;;;;;;21.21;73.97;101537.25;4968594;28;20026;-79
2023/06/29 00:12:33;;;;;;;26.50;18.17;;;;;;;21.22;73.62;101525.53;4969861;28;20034;-79
2023/06/29 00:14:59;;;;;;;29.30;19.00;;;;;;;21.24;74.07;101526.28;4969350;28;20027;-79
2023/06/29 00:17:24;;;;;;;27.65;19.60;;;;;;;21.22;73.45;101530.94;4968824;28;20057;-79
2023/06/29 00:19:49;;;;;;;27.17;18.60;;;;;;;21.23;73.28;101527.25;4967292;28;20118;-79
2023/06/29 00:22:15;;;;;;;29.83;19.85;;;;;;;21.24;73.67;101522.72;4967357;28;20046;-79
2023/06/29 00:24:44;;;;;;;23.92;18.10;;;;;;;21.32;72.62;101518.53;4965688;28;20367;-79
2023/06/29 00:27:13;;;;;;;27.10;18.63;;;;;;;21.42;72.85;101516.00;4970239;28;20097;-79
2023/06/29 00:29:42;;;;;;;27.55;19.40;;;;;;;21.47;72.37;101516.53;4964814;28;20027;-79
2023/06/29 00:32:11;;;;;;;24.65;18.30;;;;;;;21.53;71.62;101520.56;4964632;28;20121;-79
2023/06/29 00:34:37;;;;;;;26.98;19.77;;;;;;;21.55;71.92;101514.13;4964437;28;20453;-79
2023/06/29 00:37:02;;;;;;;28.48;19.98;;;;;;;21.48;72.50;101517.38;4970247;28;20561;-79
2023/06/29 00:39:27;;;;;;;26.80;20.25;;;;;;;21.34;73.19;101513.03;4968346;28;20109;-79
2023/06/29 00:41:54;;;;;;;26.98;20.02;;;;;;;21.28;72.20;101514.31;4970851;28;20022;-79
2023/06/29 00:44:19;;;;;;;25.67;18.73;;;;;;;21.34;72.59;101513.03;4966317;28;20126;-79
2023/06/29 00:46:46;;;;;;;27.23;19.17;;;;;;;21.37;73.28;101505.59;4951044;28;20460;-79
2023/06/29 00:49:12;;;;;;;26.33;18.55;;;;;;;21.34;72.94;101505.81;4966982;28;20037;-79
2023/06/29 00:51:37;;;;;;;29.88;19.13;;;;;;;21.32;73.50;101507.78;4950995;28;20439;-79
2023/06/29 00:54:03;;;;;;;28.25;17.40;;;;;;;21.34;70.93;101507.66;4967701;28;20069;-79
2023/06/29 00:56:31;;;;;;;25.80;17.67;;;;;;;21.26;71.92;101508.19;4966742;28;20386;-79
2023/06/29 00:58:56;;;;;;;26.08;18.08;;;;;;;21.27;73.04;101506.38;4967583;28;20034;-79
2023/06/29 01:01:21;;;;;;;24.90;18.27;;;;;;;21.32;73.60;101496.16;4957121;28;20492;-79
2023/06/29 01:03:47;;;;;;;27.40;17.38;;;;;;;21.39;72.08;101497.41;4966415;28;20077;-79
2023/06/29 01:06:19;;;;;;;26.23;18.13;;;;;;;21.33;72.61;101496.03;4968182;28;20486;-79
2023/06/29 01:08:48;;;;;;;21.75;16.02;;;;;;;21.44;70.73;101495.22;4970532;28;20065;-79
2023/06/29 01:11:14;;;;;;;22.50;16.33;;;;;;;21.49;71.51;101489.50;4966679;28;20027;-79
2023/06/29 01:13:43;;;;;;;24.38;17.23;;;;;;;21.49;71.11;101484.97;4965002;28;20097;-79
2023/06/29 01:16:11;;;;;;;26.48;16.50;;;;;;;21.57;70.11;101487.09;4968475;28;20078;-79
2023/06/29 01:18:37;;;;;;;21.75;15.63;;;;;;;21.58;70.34;101491.47;4968032;28;20576;-79
2023/06/29 01:21:03;;;;;;;25.58;18.40;;;;;;;21.58;71.25;101486.09;4967296;28;20494;-79
2023/06/29 01:23:36;;;;;;;23.73;16.45;;;;;;;21.54;70.39;101485.50;4965928;28;20061;-79
2023/06/29 01:26:03;;;;;;;22.77;17.40;;;;;;;21.55;71.30;101487.22;4963017;28;20679;-79
2023/06/29 01:28:31;;;;;;;25.27;17.73;;;;;;;21.44;71.92;101481.78;4969632;28;20125;-79
2023/06/29 01:30:57;;;;;;;28.60;17.75;;;;;;;21.45;70.64;101482.63;4969315;28;20109;-79
2023/06/29 01:33:24;;;;;;;31.10;18.00;;;;;;;21.36;72.73;101479.69;4951957;28;20054;-79
2023/06/29 01:35:56;;;;;;;25.88;16.27;;;;;;;21.28;73.39;101475.81;4963863;28;20564;-79
2023/06/29 01:38:33;;;;;;;24.88;17.40;;;;;;;21.43;71.03;101480.06;4969066;28;20370;-79
2023/06/29 01:41:01;;;;;;;24.27;18.00;;;;;;;21.38;72.93;101485.78;4965239;28;20027;-79
2023/06/29 01:43:28;;;;;;;27.42;17.90;;;;;;;21.27;73.04;101474.97;4964544;28;20029;-79
2023/06/29 01:45:53;;;;;;;28.33;17.58;;;;;;;21.34;70.84;101478.91;4968144;28;20062;-79
2023/06/29 01:48:19;;;;;;;26.77;18.08;;;;;;;21.41;71.16;101465.88;4967283;28;20553;-79
2023/06/29 01:50:45;;;;;;;23.80;16.98;;;;;;;21.39;70.59;101459.75;4966296;28;20427;-79
2023/06/29 01:53:10;;;;;;;25.50;17.98;;;;;;;21.43;71.74;101460.38;4962815;28;20507;-79
2023/06/29 01:55:36;;;;;;;25.05;17.52;;;;;;;21.48;70.74;101468.94;4963703;28;20086;-79
2023/06/29 01:58:01;;;;;;;26.27;18.38;;;;;;;21.49;70.81;101465.28;4969631;28;20505;-79
2023/06/29 02:00:26;;;;;;;27.13;17.60;;;;;;;21.50;71.72;101464.31;4954559;28;20509;-79
2023/06/29 02:02:52;;;;;;;22.30;17.23;;;;;;;21.50;71.34;101461.63;4969475;28;20027;-79
2023/06/29 02:05:19;;;;;;;25.60;18.10;;;;;;;21.47;71.65;101453.78;4969490;28;20027;-79
2023/06/29 02:07:44;;;;;;;25.00;17.80;;;;;;;21.44;71.88;101457.56;4972985;28;20391;-79
2023/06/29 02:10:10;;;;;;;28.48;17.88;;;;;;;21.46;71.31;101457.47;4972148;28;20089;-79
2023/06/29 02:12:38;;;;;;;24.35;17.67;;;;;;;21.45;71.67;101461.09;4962573;28;20117;-79
2023/06/29 02:15:03;;;;;;;26.58;18.13;;;;;;;21.43;71.75;101452.31;4968593;28;20034;-79
2023/06/29 02:17:28;;;;;;;26.67;17.27;;;;;;;21.47;71.57;101456.47;4972038;28;20038;-79
2023/06/29 02:19:54;;;;;;;26.75;18.17;;;;;;;21.38;72.26;101452.66;4966524;28;20027;-79
2023/06/29 02:22:19;;;;;;;26.30;17.58;;;;;;;21.41;71.01;101456.97;4969828;28;20585;-79
2023/06/29 02:24:44;;;;;;;24.52;18.08;;;;;;;21.41;70.68;101449.75;4968298;28;20027;-79
2023/06/29 02:27:09;;;;;;;24.50;17.10;;;;;;;21.38;71.56;101450.81;4967790;28;20031;-79
2023/06/29 02:29:35;;;;;;;23.67;16.80;;;;;;;21.42;71.13;101446.06;4972526;28;20418;-79
2023/06/29 02:32:00;;;;;;;27.38;19.23;;;;;;;21.31;71.89;101446.00;4972456;28;20033;-79
2023/06/29 02:34:25;;;;;;;25.10;16.95;;;;;;;21.35;70.75;101445.66;4965939;28;20429;-79
2023/06/29 02:36:51;;;;;;;23.92;17.23;;;;;;;21.36;71.01;101439.34;4970952;28;20109;-79
2023/06/29 02:39:16;;;;;;;28.52;18.20;;;;;;;21.36;71.28;101442.03;4968554;28;20019;-79
2023/06/29 02:41:41;;;;;;;23.33;17.38;;;;;;;21.36;71.26;101449.25;4953474;28;20067;-79
2023/06/29 02:44:06;;;;;;;29.10;19.33;;;;;;;21.20;72.73;101435.19;4966845;28;20474;-79
2023/06/29 02:46:32;;;;;;;28.30;18.85;;;;;;;21.21;72.03;101436.91;4953209;28;20059;-79
2023/06/29 02:48:57;;;;;;;26.20;18.27;;;;;;;21.20;72.15;101432.50;4968497;28;20027;-79
2023/06/29 02:51:22;;;;;;;27.00;17.98;;;;;;;21.24;71.13;101432.16;4970755;28;20026;-79
2023/06/29 02:53:47;;;;;;;25.80;18.48;;;;;;;21.24;70.93;101431.28;4964276;28;20382;-79
2023/06/29 02:56:13;;;;;;;27.65;17.67;;;;;;;21.21;71.08;101427.00;4950485;28;20034;-79
2023/06/29 02:58:38;;;;;;;28.25;18.65;;;;;;;21.23;70.69;101427.75;4968815;28;20026;-79
2023/06/29 03:01:03;;;;;;;25.73;17.98;;;;;;;21.25;71.46;101424.94;4969110;28;20074;-79
2023/06/29 03:03:28;;;;;;;28.60;19.42;;;;;;;21.20;72.62;101425.28;4967711;28;20043;-79
2023/06/29 03:05:54;;;;;;;27.95;18.48;;;;;;;21.19;72.50;101420.88;4966344;28;20026;-79
2023/06/29 03:08:19;;;;;;;29.05;19.02;;;;;;;21.14;73.08;101429.28;4967107;28;20050;-79
2023/06/29 03:10:45;;;;;;;27.05;18.65;;;;;;;21.09;73.26;101420.72;4969898;28;20081;-79
2023/06/29 03:13:10;;;;;;;27.00;18.55;;;;;;;21.09;72.96;101425.25;4966354;28;20045;-79
2023/06/29 03:15:35;;;;;;;27.83;17.55;;;;;;;21.08;72.25;101424.38;4968330;28;20386;-79
2023/06/29 03:18:01;;;;;;;23.38;17.63;;;;;;;21.14;71.92;101417.69;4966701;28;20038;-79
2023/06/29 03:20:26;;;;;;;26.30;18.73;;;;;;;21.17;72.59;101420.16;4971257;28;20252;-79
2023/06/29 03:22:51;;;;;;;33.95;19.33;;;;;;;21.14;72.08;101421.22;4969124;28;20029;-79
2023/06/29 03:25:17;;;;;;;27.83;19.48;;;;;;;21.08;73.28;101419.00;4963806;28;20094;-79
2023/06/29 03:27:42;;;;;;;29.90;20.38;;;;;;;21.06;73.73;101420.09;4965660;28;20069;-79
2023/06/29 03:30:08;;;;;;;30.38;19.08;;;;;;;21.03;72.86;101417.63;4969332;28;20031;-79
2023/06/29 03:32:33;;;;;;;27.05;19.27;;;;;;;21.08;72.96;101410.94;4950699;28;20031;-79
2023/06/29 03:34:58;;;;;;;31.55;20.83;;;;;;;21.11;72.38;101413.38;4967201;28;20027;-79
2023/06/29 03:37:23;;;;;;;31.10;18.95;;;;;;;21.20;71.49;101411.84;4964728;28;20030;-79
2023/06/29 03:39:49;;;;;;;26.05;19.02;;;;;;;21.23;71.54;101410.75;4970149;28;20031;-79
2023/06/29 03:42:14;;;;;;;29.52;20.70;;;;;;;21.21;71.86;101413.53;4969312;28;20030;-79
2023/06/29 03:44:39;;;;;;;25.92;18.42;;;;;;;21.25;70.94;101411.50;4952269;28;20568;-79
2023/06/29 03:47:06;;;;;;;28.25;19.77;;;;;;;21.27;70.59;101410.41;4965325;28;20035;-79
2023/06/29 03:49:31;;;;;;;27.33;18.58;;;;;;;21.28;70.85;101408.56;4967912;28;20485;-79
2023/06/29 03:51:56;;;;;;;26.10;18.65;;;;;;;21.32;70.48;101416.31;4970859;28;20034;-79
2023/06/29 03:54:22;;;;;;;29.23;21.08;;;;;;;21.26;71.96;101405.97;4965545;28;20034;-79
2023/06/29 03:56:47;;;;;;;28.85;20.23;;;;;;;21.22;71.97;101409.91;4970168;28;20041;-79
2023/06/29 03:59:12;;;;;;;27.30;18.77;;;;;;;21.23;70.89;101408.91;4965746;28;20030;-79
2023/06/29 04:01:38;;;;;;;31.27;21.00;;;;;;;21.27;71.75;101401.50;4970983;28;20035;-79
2023/06/29 04:04:03;;;;;;;28.45;20.10;;;;;;;21.26;71.07;101408.66;4966619;28;20498;-79
2023/06/29 04:06:28;;;;;;;26.98;19.38;;;;;;;21.28;72.23;101405.88;4951736;28;20125;-79
2023/06/29 04:08:53;;;;;;;27.48;19.63;;;;;;;21.30;72.21;101406.63;4965670;28;20105;-79
2023/06/29 04:11:19;;;;;;;28.98;19.08;;;;;;;21.29;71.21;101389.63;4956658;28;20030;-79
2023/06/29 04:13:44;;;;;;;26.67;18.75;;;;;;;21.30;71.35;101394.03;4965366;28;20015;-79
2023/06/29 04:16:09;;;;;;;26.27;18.10;;;;;;;21.32;71.62;101392.13;4970081;28;20034;-79
2023/06/29 04:18:35;;;;;;;30.02;19.63;;;;;;;21.41;70.85;101392.41;4969961;28;20027;-79
2023/06/29 04:21:00;;;;;;;30.23;19.77;;;;;;;21.33;71.91;101385.75;4953857;28;20043;-79
2023/06/29 04:23:26;;;;;;;28.27;18.92;;;;;;;21.46;71.52;101379.44;4966016;28;20026;-79
2023/06/29 04:25:51;;;;;;;25.48;16.98;;;;;;;21.52;70.35;101387.03;4966514;28;20474;-79
2023/06/29 04:28:16;;;;;;;30.05;18.25;;;;;;;21.54;70.17;101390.44;4967404;28;20034;-79
2023/06/29 04:30:42;;;;;;;25.08;17.30;;;;;;;21.51;69.86;101388.00;4965500;28;20027;-79
2023/06/29 04:33:11;;;;;;;25.70;16.60;;;;;;;21.49;70.93;101392.63;4964766;28;20027;-79
2023/06/29 04:35:40;;;;;;;29.70;18.73;;;;;;;21.32;72.37;101392.13;4965970;28;20227;-76
2023/06/29 04:38:10;;;;;;;24.10;16.45;;;;;;;21.39;71.44;101387.13;4966480;28;20129;-76
2023/06/29 04:40:39;;;;;;;27.48;17.42;;;;;;;21.45;71.15;101400.13;4961222;28;20026;-76
2023/06/29 04:43:08;;;;;;;30.00;18.40;;;;;;;21.43;70.81;101390.44;4960230;28;20031;-76
2023/06/29 04:45:34;;;;;;;27.20;17.60;;;;;;;21.45;71.03;101385.78;4952227;28;20090;-76
2023/06/29 04:48:00;;;;;;;23.80;15.70;;;;;;;21.44;70.67;101382.22;4949109;28;20026;-76
2023/06/29 04:50:30;;;;;;;29.92;17.67;;;;;;;21.45;70.55;101378.59;4968669;28;20363;-76
2023/06/29 04:52:58;;;;;;;28.65;17.58;;;;;;;21.48;70.85;101375.63;4969532;28;20724;-76
2023/06/29 04:55:24;;;;;;;29.95;18.23;;;;;;;21.46;72.00;101382.13;4965854;28;20035;-76
2023/06/29 04:57:49;;;;;;;29.58;18.05;;;;;;;21.44;72.53;101374.16;4966780;28;20027;-76
2023/06/29 05:00:15;;;;;;;32.58;18.73;;;;;;;21.39;72.19;101379.03;4964476;28;20027;-76
2023/06/29 05:02:41;;;;;;;29.17;18.20;;;;;;;21.41;71.86;101387.00;4963265;28;20039;-76
2023/06/29 05:05:08;;;;;;;29.60;19.27;;;;;;;21.45;71.90;101380.41;4964614;28;20054;-77
2023/06/29 05:07:34;;;;;;;28.70;18.90;;;;;;;21.49;70.55;101384.56;4946770;28;20034;-77
2023/06/29 05:10:00;;;;;;;31.98;18.90;;;;;;;21.48;71.72;101378.34;4967218;28;20101;-76
2023/06/29 05:12:25;;;;;;;32.15;19.00;;;;;;;21.45;70.55;101383.97;4964967;28;20035;-77
2023/06/29 05:14:51;;;;;;;30.50;18.58;;;;;;;21.53;70.66;101380.66;4966160;28;20026;-76
2023/06/29 05:17:17;;;;;;;29.73;19.48;;;;;;;21.47;71.40;101382.00;4963577;28;20057;-77
2023/06/29 05:19:42;;;;;;;29.58;19.15;;;;;;;21.48;70.86;101383.72;4964078;28;20038;-76
2023/06/29 05:22:08;;;;;;;34.20;20.40;;;;;;;21.44;70.64;101378.69;4967679;28;20474;-77
2023/06/29 05:24:33;;;;;;;30.88;19.95;;;;;;;21.35;71.21;101389.16;4964312;28;20034;-77
2023/06/29 05:26:58;;;;;;;31.85;20.33;;;;;;;21.35;71.31;101377.56;4968797;28;20026;-76
2023/06/29 05:29:24;;;;;;;33.10;20.08;;;;;;;21.37;70.89;101379.16;4947911;28;20034;-76
2023/06/29 05:31:49;;;;;;;28.35;19.25;;;;;;;21.42;71.04;101377.97;4950651;28;20121;-76
2023/06/29 05:34:14;;;;;;;31.88;19.30;;;;;;;21.49;71.05;101373.81;4965771;28;20050;-77
2023/06/29 05:36:40;;;;;;;32.88;18.75;;;;;;;21.46;70.54;101369.53;4965538;28;20102;-76
2023/06/29 05:39:06;;;;;;;29.48;18.58;;;;;;;21.50;70.56;101371.00;4972512;28;20502;-77
2023/06/29 05:41:32;;;;;;;37.58;20.88;;;;;;;21.52;70.45;101371.75;4969418;28;20022;-76
2023/06/29 05:43:57;;;;;;;29.73;19.83;;;;;;;21.50;70.93;101378.22;4970770;28;20041;-77
2023/06/29 05:46:22;;;;;;;31.20;19.88;;;;;;;21.54;70.65;101377.00;4966774;28;20110;-77
2023/06/29 05:48:48;;;;;;;32.20;22.05;;;;;;;21.51;70.72;101375.41;4971012;28;20473;-77
2023/06/29 05:51:13;;;;;;;33.58;20.55;;;;;;;21.60;69.95;101372.00;4972635;28;20508;-76
2023/06/29 05:53:38;;;;;;;32.22;21.40;;;;;;;21.55;69.93;101374.19;4952740;28;20066;-76
2023/06/29 05:56:03;;;;;;;30.52;20.67;;;;;;;21.62;69.77;101364.66;4965537;28;20019;-77
2023/06/29 05:58:29;;;;;;;33.92;21.20;;;;;;;21.70;69.69;101368.59;4967608;28;20041;-76
2023/06/29 06:00:55;;;;;;;32.47;20.42;;;;;;;21.76;68.69;101373.47;4969371;28;20534;-77
2023/06/29 06:03:21;;;;;;;31.23;19.75;;;;;;;21.68;68.72;101362.47;4973196;28;20047;-76
2023/06/29 06:05:46;;;;;;;30.33;19.33;;;;;;;21.68;68.81;101368.69;4951764;28;20039;-76
2023/06/29 06:08:12;;;;;;;32.45;20.15;;;;;;;21.65;67.93;101361.75;4968746;28;20104;-76
2023/06/29 06:10:37;;;;;;;34.22;21.15;;;;;;;21.62;67.77;101359.28;4970456;28;20125;-77
2023/06/29 06:13:04;;;;;;;32.33;20.05;;;;;;;21.74;66.46;101365.53;4966738;28;20030;-77
2023/06/29 06:15:29;;;;;;;32.47;20.63;;;;;;;21.86;66.19;101363.69;4966580;28;20470;-77
2023/06/29 06:17:55;;;;;;;29.73;20.08;;;;;;;21.87;65.67;101363.59;4971641;28;20165;-76
2023/06/29 06:20:20;;;;;;;31.35;19.40;;;;;;;21.90;66.11;101374.09;4968665;28;20390;-76
2023/06/29 06:22:45;;;;;;;30.95;18.45;;;;;;;22.04;65.27;101369.47;4966988;28;20030;-76
2023/06/29 06:25:11;;;;;;;32.72;17.38;;;;;;;22.06;64.72;101367.53;4967272;28;20066;-77
2023/06/29 06:27:36;;;;;;;28.05;18.17;;;;;;;22.15;65.08;101361.44;4969623;28;20022;-77
2023/06/29 06:30:04;;;;;;;29.45;18.48;;;;;;;22.22;64.76;101362.63;4965692;28;20096;-77
2023/06/29 06:32:29;;;;;;;27.08;17.58;;;;;;;22.22;64.68;101368.00;4967874;28;20529;-77
2023/06/29 06:34:55;;;;;;;25.75;17.13;;;;;;;22.23;64.29;101360.78;4965588;28;20054;-76
2023/06/29 06:37:20;;;;;;;26.27;17.52;;;;;;;22.23;63.64;101356.25;4969256;28;20069;-76
2023/06/29 06:39:46;;;;;;;25.45;14.52;;;;;;;22.32;63.28;101363.59;4964536;28;20102;-76
2023/06/29 06:42:11;;;;;;;25.25;16.73;;;;;;;22.31;63.44;101363.72;4966594;28;20070;-77
2023/06/29 06:44:49;;;;;;;30.92;17.85;;;;;;;22.43;64.09;101368.13;4960420;28;20038;-76
2023/06/29 06:47:14;;;;;;;30.08;17.83;;;;;;;22.53;63.64;101363.69;4961923;28;20045;-77
2023/06/29 06:49:40;;;;;;;27.33;17.63;;;;;;;22.62;63.42;101364.78;4952999;28;20035;-76
2023/06/29 06:52:06;;;;;;;26.25;17.00;;;;;;;22.65;62.44;101369.88;4969372;28;20639;-76
2023/06/29 06:54:31;;;;;;;25.98;17.90;;;;;;;22.66;61.56;101367.09;4964082;28;20034;-76
2023/06/29 06:56:56;;;;;;;28.83;18.13;;;;;;;22.65;62.83;101369.88;4966640;28;20462;-76
2023/06/29 06:59:21;;;;;;;31.27;18.85;;;;;;;22.63;62.57;101363.78;4970994;28;20081;-76
2023/06/29 07:01:46;;;;;;;25.38;17.30;;;;;;;22.86;62.35;101356.47;4967401;28;20037;-76
2023/06/29 07:04:12;;;;;;;27.75;17.50;;;;;;;23.06;61.34;101362.91;4967414;28;20494;-76
2023/06/29 07:06:37;;;;;;;26.52;17.23;;;;;;;23.25;60.97;101362.19;4965816;28;20122;-76
2023/06/29 07:09:03;;;;;;;27.10;17.88;;;;;;;23.33;60.91;101354.31;4963158;28;20078;-76
2023/06/29 07:11:29;;;;;;;26.25;17.05;;;;;;;23.57;59.72;101357.59;4965202;28;20034;-76
2023/06/29 07:13:55;;;;;;;26.38;17.48;;;;;;;23.58;58.70;101355.75;4970218;28;20508;-76
2023/06/29 07:16:21;;;;;;;24.30;16.35;;;;;;;23.82;57.62;101352.78;4949243;28;20114;-76
2023/06/29 07:19:02;;;;;;;28.27;17.30;;;;;;;24.28;57.85;101352.22;4969159;28;20034;-76
2023/06/29 07:21:27;;;;;;;26.35;17.10;;;;;;;24.54;54.79;101349.91;4969810;28;20018;-76
2023/06/29 07:23:53;;;;;;;23.90;15.38;;;;;;;24.65;55.39;101349.78;4946753;29;20027;-75
2023/06/29 07:26:18;;;;;;;24.77;16.15;;;;;;;24.72;53.35;101350.09;4967417;28;20019;-76
2023/06/29 07:28:43;;;;;;;23.70;15.53;;;;;;;24.52;54.48;101346.47;4971233;28;20027;-76
2023/06/29 07:31:09;;;;;;;24.02;16.33;;;;;;;24.51;53.00;101349.34;4967210;28;20282;-76
2023/06/29 07:33:34;;;;;;;24.73;15.32;;;;;;;24.56;51.37;101352.47;4966411;28;20077;-76
2023/06/29 07:35:59;;;;;;;25.60;17.42;;;;;;;24.86;53.03;101355.06;4968222;28;20034;-75
2023/06/29 07:38:24;;;;;;;23.60;15.67;;;;;;;24.97;52.13;101345.09;4949797;28;20061;-75
2023/06/29 07:40:50;;;;;;;27.40;16.92;;;;;;;25.15;52.27;101352.38;4965711;28;20376;-76
2023/06/29 07:43:15;;;;;;;25.77;16.95;;;;;;;25.31;51.58;101343.66;4952358;28;20561;-76
2023/06/29 07:45:40;;;;;;;24.23;17.38;;;;;;;25.20;50.02;101349.25;4964248;28;21320;-76
2023/06/29 07:48:06;;;;;;;28.58;16.35;;;;;;;25.32;50.37;101348.09;4965487;28;20555;-76
2023/06/29 07:50:31;;;;;;;26.70;16.75;;;;;;;25.40;49.45;101344.66;4968479;28;20117;-75
2023/06/29 07:52:57;;;;;;;24.55;17.17;;;;;;;25.46;48.81;101344.09;4967802;28;20447;-76
2023/06/29 07:55:22;;;;;;;26.25;16.42;;;;;;;25.78;49.04;101343.72;4966987;28;20105;-75
2023/06/29 07:57:47;;;;;;;24.83;17.05;;;;;;;26.17;47.37;101343.56;4966640;28;20077;-76
2023/06/29 08:00:13;;;;;;;28.45;16.23;;;;;;;26.44;47.33;101343.56;4970475;28;20085;-76
2023/06/29 08:02:39;;;;;;;26.33;16.95;;;;;;;26.52;47.22;101341.94;4966774;28;20085;-76
2023/06/29 08:05:04;;;;;;;23.88;16.15;;;;;;;26.62;46.59;101338.16;4968185;28;20027;-76
2023/06/29 08:07:30;;;;;;;24.65;15.90;;;;;;;26.47;45.96;101339.69;4970361;28;20038;-75
2023/06/29 08:09:55;;;;;;;25.15;17.10;;;;;;;26.11;47.86;101336.88;4970841;28;20203;-76
2023/06/29 08:12:20;;;;;;;24.02;16.38;;;;;;;26.07;48.05;101337.34;4956371;28;20367;-75
2023/06/29 08:14:46;;;;;;;25.13;16.57;;;;;;;25.79;47.93;101339.19;4950429;28;20413;-76
2023/06/29 08:17:11;;;;;;;24.67;16.20;;;;;;;25.67;48.46;101331.19;4966720;28;20278;-77
2023/06/29 08:19:36;;;;;;;21.63;15.65;;;;;;;25.68;47.38;101329.31;4954624;28;20282;-76
2023/06/29 08:22:02;;;;;;;26.85;17.30;;;;;;;25.65;48.66;101329.66;4953246;28;20389;-76
2023/06/29 08:24:27;;;;;;;25.85;16.63;;;;;;;25.56;49.22;101325.09;4970195;28;20019;-76
2023/06/29 08:26:53;;;;;;;25.42;17.17;;;;;;;25.48;49.41;101324.97;4968055;28;20109;-76
2023/06/29 08:29:19;;;;;;;24.20;16.27;;;;;;;25.40;48.83;101328.41;4964416;28;20516;-76
2023/06/29 08:31:45;;;;;;;23.48;17.00;;;;;;;25.50;50.03;101333.78;4969864;28;20305;-77
2023/06/29 08:34:10;;;;;;;27.30;17.67;;;;;;;25.77;49.56;101336.59;4963449;28;20026;-77
2023/06/29 08:36:36;;;;;;;25.05;16.52;;;;;;;25.79;49.82;101333.75;4967584;28;20302;-77
2023/06/29 08:39:01;;;;;;;29.58;18.08;;;;;;;25.65;48.39;101338.63;4966589;28;20042;-77
2023/06/29 08:41:27;;;;;;;25.83;18.38;;;;;;;25.77;47.59;101342.00;4971989;28;20185;-76
2023/06/29 08:43:52;;;;;;;27.55;16.98;;;;;;;25.99;47.49;101342.66;4965102;28;20547;-76
2023/06/29 08:46:17;;;;;;;29.02;17.73;;;;;;;25.99;46.41;101337.22;4963653;28;20027;-77
2023/06/29 08:48:44;;;;;;;26.25;17.38;;;;;;;26.03;47.84;101335.94;4967528;28;20449;-78
2023/06/29 08:51:13;;;;;;;30.05;17.77;;;;;;;26.13;46.73;101337.59;4951217;28;20479;-78
2023/06/29 08:53:42;;;;;;;25.40;17.75;;;;;;;26.02;46.64;101335.09;4969042;28;20046;-77
2023/06/29 08:56:09;;;;;;;29.27;16.60;;;;;;;25.92;47.17;101331.53;4964203;28;21410;-77
2023/06/29 08:58:36;;;;;;;27.77;17.98;;;;;;;26.00;47.36;101326.22;4961835;28;20082;-77
2023/06/29 09:01:02;;;;;;;26.45;17.58;;;;;;;26.30;46.79;101335.94;4970111;28;20558;-77
2023/06/29 09:03:28;;;;;;;28.52;19.08;;;;;;;26.81;45.91;101330.88;4969766;28;20117;-77
2023/06/29 09:05:56;;;;;;;25.67;17.38;;;;;;;27.42;44.35;101314.63;4967989;28;20035;-77
2023/06/29 09:08:23;;;;;;;29.95;18.20;;;;;;;27.81;43.54;101319.63;4967884;28;20062;-78
2023/06/29 09:10:49;;;;;;;25.75;16.45;;;;;;;27.62;43.38;101317.09;4969973;28;20030;-78
2023/06/29 09:13:14;;;;;;;26.50;17.15;;;;;;;28.02;42.45;101307.47;4967715;28;20651;-77
2023/06/29 09:15:40;;;;;;;28.02;17.80;;;;;;;27.98;41.54;101320.56;4966545;28;20035;-77
2023/06/29 09:18:07;;;;;;;25.30;17.42;;;;;;;27.73;42.52;101316.84;4963439;28;20034;-78
2023/06/29 09:20:36;;;;;;;26.55;18.33;;;;;;;27.77;43.18;101312.78;4966860;28;20501;-78
2023/06/29 09:23:04;;;;;;;27.98;17.98;;;;;;;27.81;43.11;101316.03;4967896;28;20386;-78
2023/06/29 09:25:30;;;;;;;26.17;17.92;;;;;;;27.80;43.99;101315.19;4968364;28;20030;-78
2023/06/29 09:28:06;;;;;;;23.88;15.82;;;;;;;27.78;43.44;101314.50;4963770;28;20513;-78
2023/06/29 09:30:40;;;;;;;24.13;17.15;;;;;;;27.74;43.79;101313.09;4969508;28;20089;-78
2023/06/29 09:33:10;;;;;;;24.02;16.27;;;;;;;27.45;42.99;101314.28;4969460;28;20529;-77
2023/06/29 09:35:38;;;;;;;23.63;15.07;;;;;;;27.24;41.89;101318.38;4966307;28;20030;-77
2023/06/29 09:38:03;;;;;;;23.45;16.08;;;;;;;27.14;43.18;101326.59;4950613;28;20121;-78
2023/06/29 09:40:29;;;;;;;22.38;16.05;;;;;;;26.86;43.41;101323.13;4965759;28;20133;-77
2023/06/29 09:42:55;;;;;;;23.48;15.85;;;;;;;26.85;43.92;101319.53;4966451;28;21176;-78
2023/06/29 09:45:21;;;;;;;21.83;15.35;;;;;;;26.92;43.34;101323.34;4967116;28;22270;-78
2023/06/29 09:47:50;;;;;;;23.90;16.15;;;;;;;26.87;44.35;101314.00;4963725;28;20038;-78
2023/06/29 09:50:20;;;;;;;25.88;16.98;;;;;;;26.85;44.37;101311.41;4966794;28;20106;-78
2023/06/29 09:52:47;;;;;;;24.75;16.40;;;;;;;26.94;43.61;101318.63;4973725;28;20026;-78
2023/06/29 09:55:14;;;;;;;22.88;15.95;;;;;;;26.95;44.06;101324.88;4968707;28;20055;-78
2023/06/29 09:57:40;;;;;;;22.98;15.82;;;;;;;26.79;43.21;101322.03;4963931;28;20577;-78
2023/06/29 10:00:11;;;;;;;27.17;18.15;;;;;;;26.78;43.50;101317.63;4966874;28;20045;-78
2023/06/29 10:02:36;;;;;;;26.80;17.27;;;;;;;26.79;43.62;101324.75;4966508;28;20034;-78
2023/06/29 10:05:01;;;;;;;23.77;17.00;;;;;;;26.81;44.61;101322.72;4968904;28;20034;-79
2023/06/29 10:07:27;;;;;;;25.48;16.60;;;;;;;26.79;44.48;101322.03;4967901;28;20073;-78
2023/06/29 10:09:53;;;;;;;22.05;15.93;;;;;;;26.67;43.71;101329.53;4965823;28;20055;-78
2023/06/29 10:12:22;;;;;;;25.85;17.40;;;;;;;26.70;43.99;101321.13;4968200;28;20101;-78
2023/06/29 10:14:49;;;;;;;24.88;17.88;;;;;;;26.73;43.57;101323.53;4966572;28;20022;-78
2023/06/29 10:17:25;;;;;;;30.05;17.80;;;;;;;26.64;44.52;101321.75;4966399;28;20089;-78
2023/06/29 10:19:52;;;;;;;25.48;17.33;;;;;;;26.65;45.78;101320.72;4973882;28;20031;-78
2023/06/29 10:22:18;;;;;;;25.38;17.42;;;;;;;26.40;45.38;101320.44;4970617;28;20058;-78
2023/06/29 10:24:54;;;;;;;25.25;17.10;;;;;;;26.26;45.22;101325.53;4967193;28;20043;-78
2023/06/29 10:27:22;;;;;;;29.77;18.40;;;;;;;26.39;45.05;101320.59;4970052;28;20033;-78
2023/06/29 10:29:50;;;;;;;32.05;18.88;;;;;;;26.61;44.94;101319.31;4971256;28;20501;-78
2023/06/29 10:32:35;;;;;;;28.10;18.98;;;;;;;26.91;44.92;101321.66;4970170;28;20338;-78
2023/06/29 10:35:11;;;;;;;26.33;19.15;;;;;;;26.98;44.92;101318.31;4971934;28;20490;-78
2023/06/29 10:37:40;;;;;;;30.15;19.35;;;;;;;27.05;44.89;101316.69;4971895;28;20031;-78
2023/06/29 10:40:12;;;;;;;34.78;20.52;;;;;;;27.23;44.65;101322.94;4967712;28;20030;-79
2023/06/29 10:42:37;;;;;;;28.52;18.83;;;;;;;27.19;44.05;101327.84;4972574;28;20038;-78
2023/06/29 10:45:22;;;;;;;29.30;19.10;;;;;;;27.09;44.42;101320.78;4975864;28;20061;-78
2023/06/29 10:47:57;;;;;;;29.10;17.80;;;;;;;26.81;44.10;101320.88;4950885;28;20039;-78
2023/06/29 10:50:24;;;;;;;27.38;18.92;;;;;;;26.58;43.27;101322.34;4973488;28;20061;-77
2023/06/29 10:52:50;;;;;;;29.15;17.33;;;;;;;26.56;43.60;101308.94;4954384;28;20472;-78
2023/06/29 10:55:23;;;;;;;29.42;20.52;;;;;;;26.49;44.80;101316.00;4971113;28;20023;-78
2023/06/29 10:57:57;;;;;;;31.17;19.42;;;;;;;26.51;44.37;101311.25;4966897;28;20030;-78
2023/06/29 11:00:23;;;;;;;27.40;18.25;;;;;;;26.47;44.21;101318.00;4963778;28;20474;-81
2023/06/29 11:02:49;;;;;;;27.20;18.80;;;;;;;26.42;43.99;101310.28;4969429;28;20033;-80
2023/06/29 11:05:18;;;;;;;28.48;18.35;;;;;;;26.42;45.07;101315.72;4966450;28;20033;-80